CheckWX is a tool to help pilots better visualize weather data.  It is not intended as a substitute for an official pre-flight weather briefing.

16:13:04 UTC

KORB METAR
Orr Regional Airport
Orr, Minnesota, USA
Current

20 mins ago

KORB 261553Z AUTO 00000KT 10SM SCT021 BKN090 13/06 A3009 RMK AO2 P0002 P0002
Observed
May-26 @ 15:53 UTC
Visibility
10 SM
Flight Rules
VFR
Cloud Levels
  • Scattered at 2,100' AGL
  • Broken at 9,000' AGL
Temperature
13°C / 55°F
Dewpoint
C / 43°F
Humidity
63%
Altimeter
30.09" Hg
Pressure
1018.92 hPa
Current Rain
0.02"
Previous

40 mins ago

KORB 261533Z AUTO 00000KT 10SM BKN090 14/07 A3009 RMK AO2 P0001 P0001
Observed
May-26 @ 15:33 UTC
Visibility
10 SM
Flight Rules
VFR
Cloud Levels
  • Broken at 9,000' AGL
Temperature
14°C / 57°F
Dewpoint
C / 45°F
Humidity
63%
Altimeter
30.09" Hg
Pressure
1018.92 hPa
Current Rain
0.01"
Previous

60 mins ago

KORB 261513Z AUTO 00000KT 10SM BKN090 12/06 A3010 RMK AO2 P0001 P0001
Observed
May-26 @ 15:13 UTC
Visibility
10 SM
Flight Rules
VFR
Cloud Levels
  • Broken at 9,000' AGL
Temperature
12°C / 54°F
Dewpoint
C / 43°F
Humidity
67%
Altimeter
30.1" Hg
Pressure
1019.32 hPa
Current Rain
0.01"